Time;durP1;ratioP1;P1;durP2;ratioP2;P2;SDS_P1;SDS_P2;PMS_P1;PMS_P2;Temp;Humidity;BMP_temperature;BMP_pressure;BME280_temperature;BME280_humidity;BME280_pressure;Samples;Min_cycle;Max_cycle;Signal;HPM_P1;HPM_P2
2022/08/10 00:01:23;;;;;;;2.03;1.75;;;;;;;18.97;68.91;97049.00;5054444;28;20199;-53
2022/08/10 00:03:50;;;;;;;2.55;2.08;;;;;;;18.86;70.01;97053.00;5055137;28;20611;-50
2022/08/10 00:06:17;;;;;;;2.65;2.20;;;;;;;18.82;69.17;97049.84;5054934;28;20631;-54
2022/08/10 00:08:44;;;;;;;3.38;2.63;;;;;;;18.81;69.98;97055.41;5055653;28;20618;-52
2022/08/10 00:11:11;;;;;;;2.55;2.28;;;;;;;18.74;70.46;97062.53;5055013;28;20606;-51
2022/08/10 00:13:38;;;;;;;2.35;1.90;;;;;;;18.66;71.57;97050.03;5051885;28;20664;-52
2022/08/10 00:16:05;;;;;;;3.65;2.08;;;;;;;18.65;72.44;97051.03;5045345;28;20264;-52
2022/08/10 00:18:31;;;;;;;2.45;2.25;;;;;;;18.62;71.78;97050.56;5053597;28;20230;-53
2022/08/10 00:20:58;;;;;;;1.88;1.77;;;;;;;18.52;70.95;97045.50;5054727;28;20659;-53
2022/08/10 00:23:26;;;;;;;2.38;2.17;;;;;;;18.45;71.27;97049.88;5054713;28;20322;-52
2022/08/10 00:25:53;;;;;;;2.00;1.90;;;;;;;18.44;70.48;97045.53;5054184;28;20294;-51
2022/08/10 00:28:20;;;;;;;2.20;2.00;;;;;;;18.40;70.61;97041.53;5054347;28;20242;-52
2022/08/10 00:30:47;;;;;;;2.25;2.15;;;;;;;18.43;70.43;97041.19;5054635;28;20246;-53
2022/08/10 00:33:14;;;;;;;2.60;2.30;;;;;;;18.35;73.07;97038.59;5054643;28;20239;-52
2022/08/10 00:35:41;;;;;;;2.33;2.10;;;;;;;18.36;72.19;97032.22;5054431;28;20260;-53
2022/08/10 00:38:07;;;;;;;4.43;2.10;;;;;;;18.32;73.83;97038.94;5054329;28;20278;-52
2022/08/10 00:40:35;;;;;;;2.33;2.10;;;;;;;18.32;70.94;97033.59;5054849;28;20214;-52
2022/08/10 00:43:02;;;;;;;2.50;2.25;;;;;;;18.32;71.36;97039.78;5054114;28;20314;-52
2022/08/10 00:45:29;;;;;;;2.95;1.92;;;;;;;18.27;71.98;97028.78;5054136;28;20300;-51
2022/08/10 00:47:56;;;;;;;3.30;2.05;;;;;;;18.28;71.13;97026.94;5054248;28;20227;-52
2022/08/10 00:50:23;;;;;;;2.25;2.05;;;;;;;18.27;71.72;97030.63;5054731;28;20297;-51
2022/08/10 00:52:52;;;;;;;2.30;2.10;;;;;;;18.36;70.70;97026.84;5054302;28;20282;-51
2022/08/10 00:55:19;;;;;;;2.45;2.25;;;;;;;18.34;71.47;97026.22;5053162;28;20279;-52
2022/08/10 00:57:49;;;;;;;3.78;2.08;;;;;;;18.39;70.98;97027.31;5054143;28;20703;-52
2022/08/10 01:00:19;;;;;;;2.33;2.00;;;;;;;18.38;71.17;97023.00;5054354;28;20298;-51
2022/08/10 01:02:45;;;;;;;2.22;1.98;;;;;;;18.35;71.84;97027.88;5057692;28;20231;-52
2022/08/10 01:05:14;;;;;;;3.22;1.70;;;;;;;18.29;72.21;97023.25;5044519;28;20532;-53
2022/08/10 01:08:13;;;;;;;2.38;2.00;;;;;;;18.27;72.17;97026.13;5058157;28;20222;-52
2022/08/10 01:10:44;;;;;;;4.00;2.30;;;;;;;18.21;72.21;97020.66;5036990;28;20204;-51
2022/08/10 01:13:17;;;;;;;3.25;2.00;;;;;;;18.16;71.81;97017.69;5038058;28;20290;-52
2022/08/10 01:15:55;;;;;;;2.88;2.03;;;;;;;18.13;74.25;97018.03;5045746;28;20295;-52
2022/08/10 01:18:28;;;;;;;2.10;2.00;;;;;;;18.16;73.31;97017.69;5057954;28;20207;-52
2022/08/10 01:21:09;;;;;;;2.40;2.20;;;;;;;18.10;73.40;97013.91;5057716;28;20235;-53
2022/08/10 01:23:53;;;;;;;1.85;1.75;;;;;;;18.04;73.81;97011.91;5057784;28;20682;-52
2022/08/10 01:26:33;;;;;;;3.00;2.20;;;;;;;18.06;71.82;97017.09;5057178;28;20627;-52
2022/08/10 01:29:14;;;;;;;2.38;2.05;;;;;;;18.04;73.67;97019.13;5057188;28;20620;-51
2022/08/10 01:31:44;;;;;;;2.45;2.25;;;;;;;17.96;75.23;97021.88;5057125;28;20238;-52
2022/08/10 01:34:13;;;;;;;1.92;1.83;;;;;;;17.96;74.82;97027.22;5057818;28;20290;-52
2022/08/10 01:36:44;;;;;;;2.08;1.98;;;;;;;17.94;74.52;97023.88;5057716;28;20234;-52
2022/08/10 01:39:15;;;;;;;2.85;2.15;;;;;;;17.97;74.20;97018.16;5051747;28;20231;-53
2022/08/10 01:41:43;;;;;;;2.97;2.78;;;;;;;18.03;73.13;97020.94;5057846;28;20230;-52
2022/08/10 01:44:13;;;;;;;3.60;3.30;;;;;;;18.02;73.12;97021.16;5059552;28;20387;-52
2022/08/10 01:46:45;;;;;;;3.10;2.70;;;;;;;17.99;73.60;97016.16;5053622;28;20245;-51
2022/08/10 01:49:12;;;;;;;4.03;2.70;;;;;;;17.96;73.79;97016.53;5062676;28;20258;-52
2022/08/10 01:51:40;;;;;;;3.58;2.75;;;;;;;17.99;73.69;97014.31;5057565;28;20207;-51
2022/08/10 01:54:09;;;;;;;2.38;2.25;;;;;;;18.04;73.29;97024.47;5057500;28;20245;-52
2022/08/10 01:56:41;;;;;;;2.28;2.08;;;;;;;17.97;74.42;97015.50;5056997;28;20234;-52
2022/08/10 01:59:10;;;;;;;2.80;2.60;;;;;;;17.97;73.96;97019.00;5055444;28;20207;-51
2022/08/10 02:01:39;;;;;;;2.10;2.00;;;;;;;17.94;74.12;97015.84;5055873;28;20290;-52
2022/08/10 02:04:10;;;;;;;2.25;1.80;;;;;;;17.92;73.88;97015.22;5056724;28;20318;-53
2022/08/10 02:06:40;;;;;;;2.10;2.00;;;;;;;17.99;73.17;97018.84;5055890;28;20211;-52
2022/08/10 02:09:07;;;;;;;2.80;2.10;;;;;;;17.90;74.66;97016.22;5057012;28;20249;-53
2022/08/10 02:11:35;;;;;;;1.80;1.70;;;;;;;17.97;72.37;97021.69;5056500;28;20234;-52
2022/08/10 02:14:03;;;;;;;2.20;2.10;;;;;;;17.88;73.43;97023.59;5048585;28;20692;-51
2022/08/10 02:16:30;;;;;;;1.98;1.73;;;;;;;17.89;72.32;97022.56;5051089;28;20651;-52
2022/08/10 02:18:59;;;;;;;2.72;2.17;;;;;;;17.90;71.98;97018.91;5057379;28;20286;-52
2022/08/10 02:21:29;;;;;;;2.40;2.30;;;;;;;17.84;72.46;97022.28;5056150;28;20249;-52
2022/08/10 02:23:57;;;;;;;1.90;1.80;;;;;;;17.80;72.57;97022.81;5056441;28;20667;-52
2022/08/10 02:26:25;;;;;;;2.55;2.35;;;;;;;17.68;73.45;97019.72;5056396;28;20234;-52
2022/08/10 02:28:53;;;;;;;3.63;2.25;;;;;;;17.68;74.19;97021.56;5056445;28;20204;-51
2022/08/10 02:31:22;;;;;;;2.55;2.45;;;;;;;17.58;76.52;97018.28;5056613;28;20290;-52
2022/08/10 02:33:50;;;;;;;2.17;2.08;;;;;;;17.51;77.66;97017.31;5055921;28;20242;-52
2022/08/10 02:36:17;;;;;;;2.33;2.22;;;;;;;17.45;77.60;97018.03;5053661;28;20290;-52
2022/08/10 02:38:48;;;;;;;2.58;2.30;;;;;;;17.40;78.78;97010.53;5046843;28;20249;-52
2022/08/10 02:41:20;;;;;;;2.42;2.28;;;;;;;17.35;76.64;97015.56;5056338;28;20245;-52
2022/08/10 02:43:51;;;;;;;2.88;2.67;;;;;;;17.29;77.88;97010.91;5045025;28;20258;-51
2022/08/10 02:46:25;;;;;;;2.42;2.22;;;;;;;17.23;78.65;97008.94;5054439;28;20231;-52
2022/08/10 02:48:56;;;;;;;3.20;2.45;;;;;;;17.14;78.58;97015.34;5056103;28;20294;-52
2022/08/10 02:51:27;;;;;;;2.70;2.50;;;;;;;17.09;79.24;97015.03;5055963;28;20679;-51
2022/08/10 02:53:59;;;;;;;4.30;2.42;;;;;;;17.05;79.53;97011.03;5055887;28;20539;-51
2022/08/10 02:56:37;;;;;;;2.40;2.20;;;;;;;17.03;78.73;97013.91;5055685;28;20294;-51
2022/08/10 02:59:10;;;;;;;3.33;2.30;;;;;;;17.03;78.46;97015.75;5055896;28;20294;-53
2022/08/10 03:01:41;;;;;;;2.40;2.20;;;;;;;16.97;79.12;97013.78;5056029;28;20206;-53
2022/08/10 03:04:14;;;;;;;2.20;2.10;;;;;;;16.92;78.92;97017.78;5055630;28;20226;-51
2022/08/10 03:06:43;;;;;;;2.75;2.55;;;;;;;16.95;78.21;97013.09;5055455;28;20694;-52
2022/08/10 03:09:14;;;;;;;2.63;2.42;;;;;;;16.89;79.24;97018.16;5048638;28;20295;-51
2022/08/10 03:11:41;;;;;;;2.80;2.60;;;;;;;16.82;79.20;97011.81;5050471;28;20246;-52
2022/08/10 03:14:08;;;;;;;2.80;2.60;;;;;;;16.80;79.93;97005.81;5055223;28;20298;-51
2022/08/10 03:16:35;;;;;;;2.80;2.42;;;;;;;16.77;79.91;97016.00;5055566;28;20243;-51
2022/08/10 03:19:04;;;;;;;2.67;2.40;;;;;;;16.70;80.38;97007.84;5057582;28;20286;-52
2022/08/10 03:21:32;;;;;;;2.70;2.50;;;;;;;16.71;81.37;97006.84;5054811;28;20702;-51
2022/08/10 03:24:01;;;;;;;2.67;2.47;;;;;;;16.66;82.82;97003.84;5055543;28;20262;-53
2022/08/10 03:26:33;;;;;;;2.78;2.45;;;;;;;16.62;81.96;97007.03;5057739;28;20231;-52
2022/08/10 03:29:02;;;;;;;2.88;2.63;;;;;;;16.60;82.54;97007.22;5046889;28;20203;-52
2022/08/10 03:31:29;;;;;;;2.97;2.77;;;;;;;16.56;81.87;97005.06;5055428;28;20206;-52
2022/08/10 03:33:57;;;;;;;2.53;2.33;;;;;;;16.55;81.55;97003.34;5055678;28;20302;-52
2022/08/10 03:36:25;;;;;;;2.50;2.30;;;;;;;16.52;82.11;97003.69;5054372;28;20298;-52
2022/08/10 03:38:52;;;;;;;2.65;2.50;;;;;;;16.47;82.93;97004.22;5055247;28;20313;-51
2022/08/10 03:41:21;;;;;;;2.80;2.60;;;;;;;16.45;82.72;97003.56;5054954;28;20244;-52
2022/08/10 03:43:50;;;;;;;4.00;2.43;;;;;;;16.42;81.41;97009.22;5054728;28;20314;-52
2022/08/10 03:46:20;;;;;;;4.90;2.80;;;;;;;16.38;82.87;97002.56;5054404;28;20286;-52
2022/08/10 03:48:50;;;;;;;2.73;2.53;;;;;;;16.39;82.69;96998.91;5054983;28;20238;-52
2022/08/10 03:51:18;;;;;;;2.67;2.47;;;;;;;16.33;84.06;97002.25;5044556;28;20673;-52
2022/08/10 03:53:45;;;;;;;4.83;2.60;;;;;;;16.32;82.63;97008.59;5053656;28;20624;-51
2022/08/10 03:56:14;;;;;;;3.20;3.00;;;;;;;16.33;82.27;97010.28;5063946;28;20191;-53
2022/08/10 03:58:41;;;;;;;2.90;2.70;;;;;;;16.31;83.89;97006.91;5050011;28;20290;-52
2022/08/10 04:01:10;;;;;;;2.70;2.50;;;;;;;16.31;81.55;97006.91;5054521;28;20223;-53
2022/08/10 04:03:37;;;;;;;2.60;2.40;;;;;;;16.28;83.57;97010.78;5054151;28;20743;-52
2022/08/10 04:06:07;;;;;;;3.40;2.53;;;;;;;16.28;83.63;97013.44;5054327;28;20237;-51
2022/08/10 04:08:34;;;;;;;2.70;2.50;;;;;;;16.28;84.46;97009.94;5054791;28;20245;-52
2022/08/10 04:11:00;;;;;;;3.73;2.63;;;;;;;16.23;82.86;97015.75;5054825;28;20211;-52
2022/08/10 04:13:27;;;;;;;2.67;2.53;;;;;;;16.19;84.98;97014.44;5052925;28;20257;-53
2022/08/10 04:15:54;;;;;;;2.73;2.50;;;;;;;16.17;84.53;97019.13;5054685;28;20199;-53
2022/08/10 04:18:24;;;;;;;2.80;2.60;;;;;;;16.15;84.01;97017.63;5052734;28;20290;-51
2022/08/10 04:20:53;;;;;;;3.40;3.00;;;;;;;16.14;85.23;97026.63;5045339;28;20203;-53
2022/08/10 04:23:25;;;;;;;2.73;2.53;;;;;;;16.15;84.24;97025.63;5054993;28;20294;-52
2022/08/10 04:25:53;;;;;;;2.87;2.67;;;;;;;16.15;83.56;97025.63;5054182;28;20547;-51
2022/08/10 04:28:22;;;;;;;2.90;2.60;;;;;;;16.13;84.75;97014.28;5055259;28;20290;-52
2022/08/10 04:30:50;;;;;;;5.20;2.80;;;;;;;16.12;85.39;97029.44;5054683;28;20222;-52
2022/08/10 04:33:19;;;;;;;3.87;2.77;;;;;;;16.05;85.08;97022.31;5054167;28;20237;-51
2022/08/10 04:35:47;;;;;;;3.10;2.90;;;;;;;16.12;85.38;97028.66;5055762;28;20710;-51
2022/08/10 04:38:15;;;;;;;3.43;3.07;;;;;;;16.20;85.59;97032.13;5058499;28;20264;-52
2022/08/10 04:40:43;;;;;;;3.00;2.70;;;;;;;16.40;84.44;97037.94;5058550;28;20598;-52
2022/08/10 04:43:12;;;;;;;3.30;2.60;;;;;;;16.41;83.00;97031.59;5059519;28;20294;-52
2022/08/10 04:45:39;;;;;;;3.10;2.90;;;;;;;16.53;84.04;97040.91;5058075;28;20368;-51
2022/08/10 04:48:07;;;;;;;3.03;2.83;;;;;;;16.82;80.64;97035.88;5057826;28;20639;-52
2022/08/10 04:50:34;;;;;;;2.67;2.57;;;;;;;17.05;80.54;97040.44;5060906;28;20267;-52
2022/08/10 04:53:02;;;;;;;2.80;2.60;;;;;;;17.25;81.04;97045.19;5062333;28;20294;-53
2022/08/10 04:55:29;;;;;;;2.90;2.70;;;;;;;17.60;77.98;97046.53;5061700;28;20290;-52
2022/08/10 04:57:56;;;;;;;3.60;2.60;;;;;;;17.65;77.14;97044.16;5059184;28;20658;-53
2022/08/10 05:00:22;;;;;;;2.60;2.40;;;;;;;17.71;77.01;97050.66;5058884;28;20298;-52
2022/08/10 05:02:50;;;;;;;2.70;2.50;;;;;;;17.78;77.35;97051.63;5058616;28;20703;-52
2022/08/10 05:05:17;;;;;;;2.75;2.42;;;;;;;17.65;77.24;97044.16;5059226;28;20226;-52
2022/08/10 05:07:44;;;;;;;3.25;2.60;;;;;;;17.97;76.75;97055.63;5058474;28;20659;-53
2022/08/10 05:10:14;;;;;;;4.95;2.67;;;;;;;18.20;74.57;97053.78;5059679;28;20242;-52
2022/08/10 05:12:40;;;;;;;3.15;2.85;;;;;;;18.42;75.01;97058.28;5059878;28;20289;-53
2022/08/10 05:15:11;;;;;;;2.50;2.40;;;;;;;18.62;74.33;97059.44;5058223;28;20214;-51
2022/08/10 05:17:38;;;;;;;3.30;2.50;;;;;;;18.81;70.00;97050.84;5063430;28;20207;-53
2022/08/10 05:20:07;;;;;;;3.58;2.47;;;;;;;19.02;67.28;97057.34;5064155;28;20203;-52
2022/08/10 05:22:37;;;;;;;3.65;2.53;;;;;;;19.25;68.56;97055.38;5066297;28;20207;-53
2022/08/10 05:25:06;;;;;;;2.63;2.42;;;;;;;19.38;67.17;97055.53;5063712;28;20273;-51
2022/08/10 05:27:38;;;;;;;4.00;2.60;;;;;;;19.41;68.60;97063.25;5066820;28;20289;-53
2022/08/10 05:30:09;;;;;;;4.40;2.70;;;;;;;19.55;67.29;97067.75;5077952;28;20227;-51
2022/08/10 05:32:36;;;;;;;2.78;2.55;;;;;;;19.69;65.22;97061.53;5080563;28;20202;-52
2022/08/10 05:35:04;;;;;;;3.50;2.45;;;;;;;20.06;65.31;97062.28;5073945;28;20192;-52
2022/08/10 05:37:31;;;;;;;2.95;2.35;;;;;;;20.40;62.64;97064.28;5060936;28;20191;-53
2022/08/10 05:39:59;;;;;;;4.18;2.40;;;;;;;20.44;62.36;97066.38;5066957;28;20183;-53
2022/08/10 05:42:27;;;;;;;2.78;2.55;;;;;;;20.60;60.86;97066.13;5078341;28;20200;-51
2022/08/10 05:44:55;;;;;;;2.53;2.00;;;;;;;20.65;59.89;97058.28;5078827;28;20207;-54
2022/08/10 05:47:21;;;;;;;4.10;2.30;;;;;;;20.53;59.37;97054.47;5079592;28;20242;-52
2022/08/10 05:49:48;;;;;;;3.42;2.42;;;;;;;20.54;57.89;97061.53;5079872;28;20190;-52
2022/08/10 05:52:17;;;;;;;2.35;2.25;;;;;;;20.51;57.78;97055.72;5079479;28;20214;-52
2022/08/10 05:54:44;;;;;;;2.40;2.20;;;;;;;20.69;60.10;97064.94;5058537;28;20278;-54
2022/08/10 05:57:13;;;;;;;2.63;2.10;;;;;;;20.76;61.03;97057.75;5057431;28;20537;-53
2022/08/10 05:59:52;;;;;;;2.33;1.98;;;;;;;20.95;61.94;97063.44;5058754;28;20645;-52
2022/08/10 06:02:31;;;;;;;2.42;2.22;;;;;;;21.35;58.43;97059.97;5062291;28;20222;-54
2022/08/10 06:05:00;;;;;;;4.28;2.25;;;;;;;21.47;58.16;97062.94;5063186;28;20211;-52
2022/08/10 06:07:29;;;;;;;2.50;2.30;;;;;;;21.60;57.36;97063.81;5054411;28;20298;-52
2022/08/10 06:09:56;;;;;;;5.05;2.40;;;;;;;21.96;55.07;97052.78;5055715;28;20297;-52
2022/08/10 06:12:26;;;;;;;3.30;2.22;;;;;;;22.27;55.13;97057.56;5044622;28;20239;-52
2022/08/10 06:15:02;;;;;;;6.68;2.63;;;;;;;22.39;53.08;97063.97;5054853;28;20210;-53
2022/08/10 06:17:33;;;;;;;4.32;2.55;;;;;;;22.85;53.73;97065.88;5056626;28;20288;-52
2022/08/10 06:20:00;;;;;;;2.38;2.17;;;;;;;23.12;51.84;97064.78;5056524;28;20635;-52
2022/08/10 06:22:28;;;;;;;2.70;2.20;;;;;;;23.18;51.43;97069.34;5055892;28;20226;-53
2022/08/10 06:24:56;;;;;;;2.65;2.45;;;;;;;23.45;49.77;97070.97;5056430;28;20233;-53
2022/08/10 06:27:23;;;;;;;3.17;2.20;;;;;;;23.46;49.85;97080.69;5056258;28;20303;-51
2022/08/10 06:29:51;;;;;;;2.63;2.42;;;;;;;23.71;50.38;97078.94;5055856;28;20291;-53
2022/08/10 06:32:18;;;;;;;2.30;2.10;;;;;;;23.81;50.52;97074.97;5056296;28;20257;-53
2022/08/10 06:34:50;;;;;;;6.38;1.95;;;;;;;23.83;49.45;97079.09;5055817;28;20238;-53
2022/08/10 06:37:17;;;;;;;2.40;2.20;;;;;;;24.14;49.97;97070.22;5056108;28;20242;-53
2022/08/10 06:39:44;;;;;;;3.42;2.25;;;;;;;24.22;48.65;97078.06;5055994;28;20679;-53
2022/08/10 06:42:14;;;;;;;2.00;1.60;;;;;;;24.91;51.49;97067.13;5055865;28;20203;-46
2022/08/10 06:44:47;;;;;;;3.05;1.85;;;;;;;25.18;49.62;97073.13;5055471;28;20207;-46
2022/08/10 06:47:15;;;;;;;3.08;2.17;;;;;;;25.37;46.08;97055.81;5054856;28;20622;-47
2022/08/10 06:49:43;;;;;;;3.03;2.17;;;;;;;24.97;47.69;97058.13;5055877;28;20302;-45
2022/08/10 06:52:13;;;;;;;3.20;1.75;;;;;;;25.60;46.14;97063.28;5054664;28;20210;-46
2022/08/10 06:54:40;;;;;;;3.45;1.98;;;;;;;25.53;44.80;97066.06;5047551;28;20783;-45
2022/08/10 06:57:09;;;;;;;2.60;2.05;;;;;;;25.17;46.39;97066.88;5055332;28;20302;-45
2022/08/10 06:59:38;;;;;;;2.53;2.10;;;;;;;25.26;44.61;97070.09;5055662;28;20285;-46
2022/08/10 07:02:15;;;;;;;2.70;1.90;;;;;;;24.46;47.02;97071.03;5052084;28;20317;-46
2022/08/10 07:04:43;;;;;;;5.10;2.20;;;;;;;24.11;46.86;97071.44;5055379;28;20215;-45
2022/08/10 07:07:17;;;;;;;2.35;1.98;;;;;;;25.04;45.30;97072.41;5054572;28;20297;-46
2022/08/10 07:09:44;;;;;;;2.90;2.10;;;;;;;24.61;47.82;97068.84;5055553;28;20241;-46
2022/08/10 07:12:11;;;;;;;2.38;2.15;;;;;;;24.93;47.77;97064.19;5055463;28;20207;-46
2022/08/10 07:14:40;;;;;;;1.80;1.70;;;;;;;25.41;47.21;97057.00;5044134;28;20303;-46
2022/08/10 07:17:10;;;;;;;2.58;2.17;;;;;;;25.70;45.64;97048.16;5054784;28;20299;-47
2022/08/10 07:19:42;;;;;;;2.65;2.10;;;;;;;25.48;43.54;97057.75;5054539;28;20298;-45
2022/08/10 07:22:11;;;;;;;2.97;2.45;;;;;;;24.97;45.60;97054.59;5053503;28;20531;-46
2022/08/10 07:24:40;;;;;;;3.03;2.28;;;;;;;25.44;46.01;97051.13;5054392;28;20223;-47
2022/08/10 07:27:08;;;;;;;1.90;1.80;;;;;;;26.42;44.30;97046.31;5055347;28;20221;-46
2022/08/10 07:29:36;;;;;;;4.47;2.28;;;;;;;25.58;44.58;97055.38;5054715;28;20207;-45
2022/08/10 07:32:03;;;;;;;4.68;2.45;;;;;;;25.25;44.50;97047.63;5055106;28;20594;-47
2022/08/10 07:34:31;;;;;;;5.43;2.60;;;;;;;25.35;44.94;97044.38;5054751;28;20603;-46
2022/08/10 07:37:02;;;;;;;3.20;2.20;;;;;;;25.60;44.12;97050.56;5054307;28;20294;-47
2022/08/10 07:39:33;;;;;;;2.05;1.77;;;;;;;26.43;43.28;97047.94;5054835;28;20587;-46
2022/08/10 07:42:03;;;;;;;2.47;2.22;;;;;;;25.61;43.99;97048.69;5045099;28;20214;-47
2022/08/10 07:44:31;;;;;;;5.32;2.30;;;;;;;25.82;44.41;97044.66;5050822;28;20241;-46
2022/08/10 07:47:00;;;;;;;1.98;1.80;;;;;;;25.93;44.43;97057.44;5053947;28;20239;-45
2022/08/10 07:49:28;;;;;;;2.22;2.03;;;;;;;25.96;42.42;97048.84;5054237;28;20211;-47
2022/08/10 07:51:56;;;;;;;2.50;1.85;;;;;;;25.93;43.94;97050.13;5054344;28;20211;-45
2022/08/10 07:54:24;;;;;;;3.15;2.25;;;;;;;25.94;42.97;97050.94;5053739;28;20290;-45
2022/08/10 07:56:56;;;;;;;4.18;2.08;;;;;;;26.51;43.31;97058.44;5054650;28;20257;-45
2022/08/10 07:59:26;;;;;;;2.55;1.90;;;;;;;26.88;42.34;97047.44;5051511;28;20595;-46
2022/08/10 08:01:54;;;;;;;4.07;1.95;;;;;;;26.64;42.52;97044.66;5054192;28;20290;-45
2022/08/10 08:04:22;;;;;;;3.80;2.15;;;;;;;27.15;41.85;97043.16;5053431;28;20314;-46
2022/08/10 08:06:52;;;;;;;4.15;1.77;;;;;;;27.02;43.32;97046.13;5055103;28;20603;-47
2022/08/10 08:09:21;;;;;;;2.30;2.00;;;;;;;27.23;41.92;97044.69;5055295;28;20245;-45
2022/08/10 08:11:49;;;;;;;2.60;1.80;;;;;;;27.36;41.39;97050.69;5050698;28;20227;-46
2022/08/10 08:14:19;;;;;;;3.83;2.05;;;;;;;27.30;41.15;97042.69;5058662;28;20203;-46
2022/08/10 08:16:49;;;;;;;2.80;2.17;;;;;;;26.70;42.46;97042.91;5055385;28;20691;-45
2022/08/10 08:19:17;;;;;;;5.03;2.38;;;;;;;27.30;42.39;97046.22;5054609;28;20211;-46
2022/08/10 08:21:45;;;;;;;2.35;2.15;;;;;;;27.60;41.60;97041.44;5053085;28;20235;-47
2022/08/10 08:24:14;;;;;;;4.80;2.30;;;;;;;27.97;40.37;97036.47;5053859;28;20210;-46
2022/08/10 08:26:41;;;;;;;4.53;1.85;;;;;;;27.93;42.69;97042.63;5053982;28;20310;-47
2022/08/10 08:29:09;;;;;;;4.57;2.15;;;;;;;27.52;41.37;97043.75;5054372;28;20218;-45
2022/08/10 08:31:38;;;;;;;2.72;2.38;;;;;;;27.09;41.74;97038.69;5053683;28;20195;-46
2022/08/10 08:34:05;;;;;;;5.38;1.95;;;;;;;27.79;41.12;97042.09;5052956;28;20298;-46
2022/08/10 08:36:35;;;;;;;2.55;2.05;;;;;;;27.82;40.55;97043.50;5047392;28;20203;-45
2022/08/10 08:39:01;;;;;;;2.00;1.80;;;;;;;27.89;39.02;97045.03;5047143;28;20691;-46
2022/08/10 08:41:45;;;;;;;3.38;2.05;;;;;;;27.39;39.71;97050.22;5047936;28;20576;-46
2022/08/10 08:44:23;;;;;;;2.55;1.80;;;;;;;27.36;40.57;97047.16;5043141;28;20203;-48
2022/08/10 08:47:07;;;;;;;2.60;1.88;;;;;;;27.61;38.56;97048.53;5049843;28;20325;-47
2022/08/10 08:49:43;;;;;;;2.00;1.77;;;;;;;27.95;39.36;97048.69;5047453;28;20573;-47
2022/08/10 08:52:39;;;;;;;2.85;2.05;;;;;;;27.99;38.51;97044.38;5048626;28;20187;-46
2022/08/10 08:55:14;;;;;;;2.80;2.20;;;;;;;27.79;40.04;97044.81;5048565;28;20287;-46
2022/08/10 08:57:50;;;;;;;4.07;2.13;;;;;;;28.13;38.16;97043.03;5042932;28;20256;-45
2022/08/10 09:00:24;;;;;;;1.85;1.75;;;;;;;28.03;39.55;97035.50;5049803;28;20598;-46
2022/08/10 09:03:23;;;;;;;3.03;1.80;;;;;;;28.39;38.73;97025.28;5054153;28;20286;-47
2022/08/10 09:05:56;;;;;;;2.60;1.58;;;;;;;28.52;38.18;97033.94;5053772;28;20317;-46
2022/08/10 09:08:35;;;;;;;3.65;1.73;;;;;;;28.60;39.06;97028.09;5053608;28;20257;-47
2022/08/10 09:11:09;;;;;;;2.20;1.95;;;;;;;28.10;38.86;97040.81;5053642;28;20264;-44
2022/08/10 09:13:40;;;;;;;3.80;2.30;;;;;;;27.88;39.83;97034.41;5051175;28;20203;-45
2022/08/10 09:16:21;;;;;;;2.05;1.80;;;;;;;27.80;39.94;97034.78;5044412;28;20290;-46
2022/08/10 09:19:03;;;;;;;2.08;1.90;;;;;;;28.30;39.61;97026.78;5064860;28;20207;-46
2022/08/10 09:21:36;;;;;;;2.25;1.67;;;;;;;28.35;39.26;97033.13;5053634;28;20246;-46
2022/08/10 09:24:10;;;;;;;1.98;1.65;;;;;;;28.36;39.15;97036.66;5056933;28;20203;-46
2022/08/10 09:26:45;;;;;;;3.25;1.75;;;;;;;28.16;37.92;97023.53;5057193;28;20265;-47
2022/08/10 09:29:16;;;;;;;3.42;1.83;;;;;;;27.87;37.75;97030.03;5056414;28;20312;-46
2022/08/10 09:31:45;;;;;;;2.15;1.83;;;;;;;28.08;38.71;97022.03;5056671;28;20215;-47
2022/08/10 09:34:19;;;;;;;4.25;2.38;;;;;;;28.48;38.95;97024.66;5057018;28;20548;-46
2022/08/10 09:37:00;;;;;;;2.70;1.75;;;;;;;28.46;37.84;97015.06;5058504;28;20263;-46
2022/08/10 09:39:31;;;;;;;2.47;2.13;;;;;;;28.80;38.20;97014.03;5057306;28;20234;-46
2022/08/10 09:42:07;;;;;;;2.20;2.00;;;;;;;28.92;37.58;97013.91;5056503;28;20286;-45
2022/08/10 09:44:42;;;;;;;3.17;2.33;;;;;;;28.88;37.06;97020.94;5056506;28;20198;-46
2022/08/10 09:47:16;;;;;;;2.67;1.70;;;;;;;28.97;36.54;97014.00;5056756;28;20238;-46
2022/08/10 09:49:54;;;;;;;3.97;1.92;;;;;;;29.12;36.29;97011.50;5056870;28;20665;-45
2022/08/10 09:52:28;;;;;;;3.95;1.90;;;;;;;28.79;35.50;97017.00;5056709;28;20571;-46
2022/08/10 09:55:04;;;;;;;2.25;1.92;;;;;;;28.87;35.43;97014.69;5056470;28;20274;-46
2022/08/10 09:57:34;;;;;;;2.55;1.80;;;;;;;29.26;36.66;97011.97;5056878;28;20199;-45
2022/08/10 10:00:08;;;;;;;2.80;2.10;;;;;;;29.28;36.51;97013.38;5056564;28;20261;-47
2022/08/10 10:02:42;;;;;;;3.40;1.88;;;;;;;29.44;36.87;97017.94;5056541;28;20531;-46
2022/08/10 10:05:18;;;;;;;3.25;1.80;;;;;;;29.28;36.99;97016.09;5055125;28;20206;-46
2022/08/10 10:07:49;;;;;;;2.22;2.00;;;;;;;29.24;37.28;97014.91;5056806;28;20237;-46
2022/08/10 10:10:19;;;;;;;2.25;2.05;;;;;;;29.14;37.10;97012.06;5053177;28;20234;-46
2022/08/10 10:12:51;;;;;;;2.33;1.80;;;;;;;29.31;34.78;97015.59;5056621;28;20398;-45
2022/08/10 10:15:27;;;;;;;3.67;1.98;;;;;;;29.17;36.46;97015.09;5057605;28;20207;-47
2022/08/10 10:18:27;;;;;;;5.35;2.25;;;;;;;29.22;36.23;97017.09;5057312;28;20191;-44
2022/08/10 10:21:05;;;;;;;2.03;1.70;;;;;;;29.30;36.17;97013.13;5051418;28;20211;-45
2022/08/10 10:23:43;;;;;;;2.05;1.85;;;;;;;29.25;36.54;97010.31;5056422;28;20230;-45
2022/08/10 10:26:16;;;;;;;5.20;2.03;;;;;;;29.54;37.10;97009.09;5055586;28;20261;-45
2022/08/10 10:28:51;;;;;;;1.92;1.83;;;;;;;29.24;34.83;97014.91;5055943;28;20211;-51
2022/08/10 10:31:22;;;;;;;3.13;1.80;;;;;;;29.36;35.86;97012.94;5057923;28;20604;-48
2022/08/10 10:33:54;;;;;;;1.85;1.75;;;;;;;29.51;34.94;97004.94;5055387;28;20306;-46
2022/08/10 10:36:24;;;;;;;1.65;1.55;;;;;;;29.57;35.68;97020.31;5054976;28;20282;-47
2022/08/10 10:38:52;;;;;;;2.72;1.70;;;;;;;29.71;35.86;97003.53;5056066;28;20242;-47
2022/08/10 10:41:34;;;;;;;4.05;1.60;;;;;;;29.89;35.47;97000.50;5055550;28;20294;-47
2022/08/10 10:44:12;;;;;;;4.13;2.03;;;;;;;29.58;34.78;97002.84;5055846;28;20203;-46
2022/08/10 10:46:50;;;;;;;2.65;2.00;;;;;;;29.69;36.25;96997.53;5054833;28;20325;-49
2022/08/10 10:49:25;;;;;;;2.00;1.75;;;;;;;29.61;36.41;96993.34;5055153;28;20282;-48
2022/08/10 10:51:59;;;;;;;1.83;1.73;;;;;;;29.81;34.78;96998.19;5055743;28;20234;-46
2022/08/10 10:54:35;;;;;;;2.63;1.92;;;;;;;30.04;36.38;97008.88;5054817;28;20329;-48
2022/08/10 10:57:07;;;;;;;1.73;1.63;;;;;;;29.74;34.33;96997.59;5055783;28;20238;-48
2022/08/10 10:59:38;;;;;;;2.28;1.80;;;;;;;29.79;34.81;96997.66;5055257;28;20253;-47
2022/08/10 11:02:21;;;;;;;2.40;2.13;;;;;;;29.80;35.24;97008.28;5054948;28;20254;-45
2022/08/10 11:04:57;;;;;;;5.50;1.95;;;;;;;29.77;35.85;96997.06;5055211;28;20547;-45
2022/08/10 11:07:32;;;;;;;4.10;1.73;;;;;;;30.06;37.02;96998.50;5055460;28;20229;-47
2022/08/10 11:10:02;;;;;;;3.17;1.88;;;;;;;29.97;35.00;97000.06;5055150;28;20233;-45
2022/08/10 11:12:40;;;;;;;2.55;1.60;;;;;;;29.73;34.24;96990.47;5055591;28;20298;-47
2022/08/10 11:15:09;;;;;;;2.75;1.83;;;;;;;30.10;36.04;97003.19;5042935;28;20281;-48
2022/08/10 11:17:42;;;;;;;4.28;2.17;;;;;;;29.94;34.06;97001.38;5054951;28;20239;-47
2022/08/10 11:20:14;;;;;;;2.13;1.70;;;;;;;30.01;34.32;97001.16;5054871;28;20206;-47
2022/08/10 11:22:46;;;;;;;2.55;1.90;;;;;;;29.76;33.78;97001.69;5074497;28;20203;-49
2022/08/10 11:25:16;;;;;;;5.10;2.28;;;;;;;30.08;35.11;96990.88;5072189;28;20203;-48
2022/08/10 11:27:47;;;;;;;2.25;1.85;;;;;;;30.11;35.45;96999.38;5057091;28;20314;-47
2022/08/10 11:30:21;;;;;;;2.80;1.80;;;;;;;30.01;34.04;97003.91;5041268;28;20708;-47
2022/08/10 11:33:01;;;;;;;3.10;1.70;;;;;;;30.15;34.41;96999.66;5054762;28;20221;-48
2022/08/10 11:35:31;;;;;;;3.22;1.70;;;;;;;30.03;33.64;96999.03;5054677;28;20202;-47
2022/08/10 11:38:06;;;;;;;2.28;1.90;;;;;;;30.17;34.39;96997.53;5054708;28;20298;-47
2022/08/10 11:40:37;;;;;;;2.47;1.90;;;;;;;29.93;34.27;96997.03;5054704;28;20639;-47
2022/08/10 11:43:10;;;;;;;3.83;2.25;;;;;;;29.56;33.83;97002.28;5054209;28;20213;-47
2022/08/10 11:45:43;;;;;;;5.70;2.08;;;;;;;29.85;33.80;96991.19;5049179;28;20600;-47
2022/08/10 11:48:22;;;;;;;4.70;1.92;;;;;;;29.92;33.48;96991.81;5048533;28;20199;-48
2022/08/10 11:50:54;;;;;;;3.05;1.70;;;;;;;30.07;34.82;96991.97;5054654;28;20225;-48